sensor_id;sensor_type;location;lat;lon;timestamp;P1;durP1;ratioP1;P2;durP2;ratioP2
45734;SDS011;31446;49.632;8.328;2024-01-11T00:04:30;62.58;;;22.27;;
45734;SDS011;31446;49.632;8.328;2024-01-11T00:19:37;62.30;;;24.02;;
45734;SDS011;31446;49.632;8.328;2024-01-11T00:34:43;66.32;;;26.65;;
45734;SDS011;31446;49.632;8.328;2024-01-11T00:49:49;68.43;;;24.17;;
45734;SDS011;31446;49.632;8.328;2024-01-11T01:04:55;61.25;;;24.90;;
45734;SDS011;31446;49.632;8.328;2024-01-11T01:20:01;65.20;;;24.13;;
45734;SDS011;31446;49.632;8.328;2024-01-11T01:35:08;65.50;;;23.63;;
45734;SDS011;31446;49.632;8.328;2024-01-11T01:50:14;61.22;;;24.33;;
45734;SDS011;31446;49.632;8.328;2024-01-11T02:05:20;63.50;;;23.83;;
45734;SDS011;31446;49.632;8.328;2024-01-11T02:20:27;64.60;;;26.50;;
45734;SDS011;31446;49.632;8.328;2024-01-11T02:35:33;58.75;;;23.13;;
45734;SDS011;31446;49.632;8.328;2024-01-11T02:50:42;57.65;;;24.27;;
45734;SDS011;31446;49.632;8.328;2024-01-11T03:05:48;65.28;;;24.73;;
45734;SDS011;31446;49.632;8.328;2024-01-11T03:20:54;55.33;;;21.73;;
45734;SDS011;31446;49.632;8.328;2024-01-11T03:36:05;54.05;;;20.05;;
45734;SDS011;31446;49.632;8.328;2024-01-11T03:51:12;59.23;;;23.07;;
45734;SDS011;31446;49.632;8.328;2024-01-11T04:06:21;64.30;;;23.27;;
45734;SDS011;31446;49.632;8.328;2024-01-11T04:21:28;80.75;;;24.95;;
45734;SDS011;31446;49.632;8.328;2024-01-11T04:36:37;57.05;;;21.90;;
45734;SDS011;31446;49.632;8.328;2024-01-11T04:51:43;65.15;;;23.50;;
45734;SDS011;31446;49.632;8.328;2024-01-11T05:06:50;69.70;;;23.23;;
45734;SDS011;31446;49.632;8.328;2024-01-11T05:21:56;52.22;;;21.75;;
45734;SDS011;31446;49.632;8.328;2024-01-11T05:37:03;59.78;;;21.83;;
45734;SDS011;31446;49.632;8.328;2024-01-11T05:52:09;56.75;;;22.83;;
45734;SDS011;31446;49.632;8.328;2024-01-11T06:07:15;59.55;;;23.55;;
45734;SDS011;31446;49.632;8.328;2024-01-11T06:22:21;61.83;;;22.90;;
45734;SDS011;31446;49.632;8.328;2024-01-11T06:37:30;62.08;;;23.58;;
45734;SDS011;31446;49.632;8.328;2024-01-11T06:52:37;72.15;;;26.05;;
45734;SDS011;31446;49.632;8.328;2024-01-11T07:07:44;61.40;;;23.63;;
45734;SDS011;31446;49.632;8.328;2024-01-11T07:22:50;66.70;;;23.83;;
45734;SDS011;31446;49.632;8.328;2024-01-11T07:37:57;52.40;;;21.20;;
45734;SDS011;31446;49.632;8.328;2024-01-11T07:53:04;62.97;;;25.27;;
45734;SDS011;31446;49.632;8.328;2024-01-11T08:08:10;76.43;;;28.90;;
45734;SDS011;31446;49.632;8.328;2024-01-11T08:23:16;73.13;;;27.23;;
45734;SDS011;31446;49.632;8.328;2024-01-11T08:38:23;75.95;;;27.35;;
45734;SDS011;31446;49.632;8.328;2024-01-11T08:53:29;65.10;;;26.85;;
45734;SDS011;31446;49.632;8.328;2024-01-11T09:08:35;70.07;;;26.63;;
45734;SDS011;31446;49.632;8.328;2024-01-11T09:23:43;70.93;;;27.83;;
45734;SDS011;31446;49.632;8.328;2024-01-11T09:38:50;62.35;;;23.15;;
45734;SDS011;31446;49.632;8.328;2024-01-11T09:53:56;63.83;;;23.20;;
45734;SDS011;31446;49.632;8.328;2024-01-11T10:09:05;74.47;;;27.75;;
45734;SDS011;31446;49.632;8.328;2024-01-11T10:24:11;87.10;;;30.60;;
45734;SDS011;31446;49.632;8.328;2024-01-11T10:39:25;73.78;;;26.98;;
45734;SDS011;31446;49.632;8.328;2024-01-11T10:54:32;66.07;;;26.10;;
45734;SDS011;31446;49.632;8.328;2024-01-11T11:09:40;79.30;;;31.67;;
45734;SDS011;31446;49.632;8.328;2024-01-11T11:24:49;59.55;;;28.52;;
45734;SDS011;31446;49.632;8.328;2024-01-11T11:40:10;64.32;;;29.20;;
45734;SDS011;31446;49.632;8.328;2024-01-11T11:55:17;60.58;;;22.95;;
45734;SDS011;31446;49.632;8.328;2024-01-11T12:10:24;91.15;;;31.50;;
45734;SDS011;31446;49.632;8.328;2024-01-11T12:25:30;78.68;;;31.88;;
45734;SDS011;31446;49.632;8.328;2024-01-11T12:40:37;73.57;;;28.85;;
45734;SDS011;31446;49.632;8.328;2024-01-11T12:55:44;85.68;;;32.95;;
45734;SDS011;31446;49.632;8.328;2024-01-11T13:10:51;56.80;;;24.23;;
45734;SDS011;31446;49.632;8.328;2024-01-11T13:25:57;68.18;;;29.67;;
45734;SDS011;31446;49.632;8.328;2024-01-11T13:41:04;59.50;;;27.13;;
45734;SDS011;31446;49.632;8.328;2024-01-11T13:56:11;57.83;;;26.92;;
45734;SDS011;31446;49.632;8.328;2024-01-11T14:11:17;60.10;;;26.30;;
45734;SDS011;31446;49.632;8.328;2024-01-11T14:26:23;73.25;;;31.83;;
45734;SDS011;31446;49.632;8.328;2024-01-11T14:41:30;65.38;;;28.75;;
45734;SDS011;31446;49.632;8.328;2024-01-11T14:56:36;58.90;;;26.33;;
45734;SDS011;31446;49.632;8.328;2024-01-11T15:11:43;68.57;;;26.80;;
45734;SDS011;31446;49.632;8.328;2024-01-11T15:26:49;130.32;;;47.90;;
45734;SDS011;31446;49.632;8.328;2024-01-11T15:41:55;68.25;;;27.30;;
45734;SDS011;31446;49.632;8.328;2024-01-11T15:57:03;56.35;;;25.67;;
45734;SDS011;31446;49.632;8.328;2024-01-11T16:12:10;53.85;;;24.10;;
45734;SDS011;31446;49.632;8.328;2024-01-11T16:27:16;67.88;;;29.20;;
45734;SDS011;31446;49.632;8.328;2024-01-11T16:42:22;61.90;;;26.70;;
45734;SDS011;31446;49.632;8.328;2024-01-11T16:57:30;69.97;;;26.88;;
45734;SDS011;31446;49.632;8.328;2024-01-11T17:12:37;74.85;;;29.55;;
45734;SDS011;31446;49.632;8.328;2024-01-11T17:27:43;81.95;;;35.88;;
45734;SDS011;31446;49.632;8.328;2024-01-11T17:42:50;69.95;;;30.10;;
45734;SDS011;31446;49.632;8.328;2024-01-11T17:57:59;66.32;;;27.45;;
45734;SDS011;31446;49.632;8.328;2024-01-11T18:13:05;62.28;;;28.10;;
45734;SDS011;31446;49.632;8.328;2024-01-11T18:28:12;54.20;;;24.88;;
45734;SDS011;31446;49.632;8.328;2024-01-11T18:43:19;76.05;;;29.17;;
45734;SDS011;31446;49.632;8.328;2024-01-11T18:58:25;56.53;;;24.00;;
45734;SDS011;31446;49.632;8.328;2024-01-11T19:13:32;58.80;;;25.65;;
45734;SDS011;31446;49.632;8.328;2024-01-11T19:28:38;53.72;;;20.88;;
45734;SDS011;31446;49.632;8.328;2024-01-11T19:43:44;78.28;;;27.05;;
45734;SDS011;31446;49.632;8.328;2024-01-11T19:58:50;45.42;;;19.52;;
45734;SDS011;31446;49.632;8.328;2024-01-11T20:13:57;50.80;;;18.67;;
45734;SDS011;31446;49.632;8.328;2024-01-11T20:29:04;44.85;;;18.60;;
45734;SDS011;31446;49.632;8.328;2024-01-11T20:44:10;46.80;;;19.48;;
45734;SDS011;31446;49.632;8.328;2024-01-11T20:59:18;48.40;;;20.10;;
45734;SDS011;31446;49.632;8.328;2024-01-11T21:14:24;45.55;;;20.45;;
45734;SDS011;31446;49.632;8.328;2024-01-11T21:29:30;46.63;;;19.42;;
45734;SDS011;31446;49.632;8.328;2024-01-11T21:44:37;45.42;;;18.58;;
45734;SDS011;31446;49.632;8.328;2024-01-11T21:59:43;52.15;;;20.70;;
45734;SDS011;31446;49.632;8.328;2024-01-11T22:14:49;48.20;;;18.83;;
45734;SDS011;31446;49.632;8.328;2024-01-11T22:29:55;29.27;;;15.10;;
45734;SDS011;31446;49.632;8.328;2024-01-11T22:45:02;41.60;;;17.75;;
45734;SDS011;31446;49.632;8.328;2024-01-11T23:00:09;32.63;;;15.02;;
45734;SDS011;31446;49.632;8.328;2024-01-11T23:15:23;31.85;;;14.10;;
45734;SDS011;31446;49.632;8.328;2024-01-11T23:30:29;31.05;;;13.80;;
45734;SDS011;31446;49.632;8.328;2024-01-11T23:45:37;34.78;;;14.25;;
